Time;durP1;ratioP1;P1;durP2;ratioP2;P2;SDS_P1;SDS_P2;PMS_P1;PMS_P2;Temp;Humidity;BMP_temperature;BMP_pressure;BME280_temperature;BME280_humidity;BME280_pressure;Samples;Min_cycle;Max_cycle;Signal;HPM_P1;HPM_P2
2022/10/03 00:01:43;;;;;;;7.70;4.50;;;8.00;1.00;8.70;94775.00;;;;7399681;19;20589;-80
2022/10/03 00:04:41;;;;;;;7.70;4.17;;;8.00;1.00;8.80;94771.00;;;;7406601;19;20132;-80
2022/10/03 00:08:04;;;;;;;8.53;4.03;;;8.10;1.00;8.60;94791.00;;;;7403785;19;20144;-81
2022/10/03 00:11:22;;;;;;;10.27;4.00;;;8.00;1.00;8.60;94796.00;;;;7406684;19;20604;-80
2022/10/03 00:14:55;;;;;;;11.40;4.47;;;7.90;1.00;8.60;94754.00;;;;7400764;19;20168;-79
2022/10/03 00:17:43;;;;;;;8.85;4.72;;;7.90;1.00;8.60;94815.00;;;;7404161;19;20177;-80
2022/10/03 00:21:09;;;;;;;10.05;4.60;;;7.90;1.00;8.50;94740.00;;;;7406632;19;20189;-80
2022/10/03 00:24:28;;;;;;;12.80;4.50;;;7.90;1.00;8.60;94804.00;;;;7410044;19;20216;-79
2022/10/03 00:27:45;;;;;;;11.37;5.13;;;7.80;1.00;8.70;94805.00;;;;7413038;19;20160;-80
2022/10/03 00:30:23;;;;;;;11.13;5.23;;;7.90;1.00;8.80;94654.00;;;;7414099;19;20129;-80
2022/10/03 00:33:56;;;;;;;11.10;5.33;;;8.00;1.00;8.80;94758.00;;;;7407358;19;20145;-79
2022/10/03 00:36:48;;;;;;;15.27;4.80;;;8.00;1.00;8.70;94807.00;;;;7404984;19;20121;-79
2022/10/03 00:40:05;;;;;;;12.07;5.37;;;7.90;1.00;8.60;94801.00;;;;7405537;19;20145;-80
2022/10/03 00:42:55;;;;;;;11.85;5.07;;;7.90;1.00;8.50;94813.00;;;;7409285;19;20137;-80
2022/10/03 00:46:23;;;;;;;16.10;5.13;;;7.80;1.00;8.50;94531.00;;;;7407525;19;20148;-80
2022/10/03 00:49:29;;;;;;;12.23;5.93;;;7.70;1.00;8.40;94635.00;;;;7406456;19;20188;-81
2022/10/03 00:52:18;;;;;;;12.15;5.60;;;7.70;1.00;8.50;94816.00;;;;7405813;19;20158;-80
2022/10/03 00:55:03;;;;;;;10.70;5.32;;;7.60;1.00;8.40;94822.00;;;;7404633;19;20157;-80
2022/10/03 00:58:24;;;;;;;16.90;6.07;;;7.60;1.00;8.30;94858.00;;;;7411052;19;20216;-80
2022/10/03 01:01:20;;;;;;;15.63;6.87;;;7.70;1.00;8.50;94688.00;;;;7403757;19;20141;-81
2022/10/03 01:04:49;;;;;;;15.17;5.83;;;7.70;1.00;8.30;94804.00;;;;7407444;19;20154;-81
2022/10/03 01:08:04;;;;;;;14.63;5.95;;;7.50;1.00;8.30;94726.00;;;;7412460;19;20402;-81
2022/10/03 01:11:23;;;;;;;20.30;6.77;;;7.50;1.00;8.50;94634.00;;;;7415663;19;20184;-81
2022/10/03 01:14:30;;;;;;;14.27;6.83;;;7.60;1.00;8.50;94818.00;;;;7405619;19;20172;-80
2022/10/03 01:17:35;;;;;;;22.50;8.17;;;7.50;99.90;8.50;94813.00;;;;7407149;19;20129;-80
2022/10/03 01:21:11;;;;;;;27.07;7.57;;;7.60;99.90;8.40;94656.00;;;;7408525;19;20249;-81
2022/10/03 01:24:22;;;;;;;14.50;6.60;;;7.60;99.90;8.30;94663.00;;;;7405681;19;20169;-80
2022/10/03 01:30:21;;;;;;;159.50;13.73;;;7.50;99.90;8.30;94632.00;;;;7404690;19;20157;-81
2022/10/03 01:30:48;;;;;;;12.50;7.17;;;7.50;99.90;8.30;94808.00;;;;7403729;19;20176;-81
2022/10/03 01:33:29;;;;;;;20.40;7.73;;;7.40;99.90;7.50;94688.00;;;;7405574;19;20656;-81
2022/10/03 01:36:38;;;;;;;14.83;7.57;;;7.40;99.90;7.60;94871.00;;;;7405851;19;20169;-80
2022/10/03 01:39:49;;;;;;;17.58;8.32;;;7.40;99.90;8.20;94719.00;;;;7402963;19;20133;-80
2022/10/03 01:43:02;;;;;;;15.23;8.07;;;7.40;99.90;7.90;94706.00;;;;7407094;19;20156;-81
2022/10/03 01:46:21;;;;;;;12.60;7.27;;;7.50;99.90;8.40;94842.00;;;;7406173;19;20121;-80
2022/10/03 01:49:53;;;;;;;20.40;8.20;;;7.60;99.90;8.40;94853.00;;;;7410319;19;20117;-81
2022/10/03 01:53:05;;;;;;;22.67;8.43;;;7.70;99.90;8.50;94752.00;;;;7417194;19;20141;-81
2022/10/03 01:56:30;;;;;;;20.07;8.40;;;7.70;99.90;8.40;94854.00;;;;7405683;19;20133;-81
2022/10/03 01:59:29;;;;;;;18.57;8.50;;;7.80;99.90;8.20;94711.00;;;;7408911;19;20144;-81
2022/10/03 02:02:40;;;;;;;23.93;8.70;;;7.80;99.90;8.60;94850.00;;;;7410978;19;20132;-82
2022/10/03 02:05:37;;;;;;;16.43;9.17;;;7.80;99.90;8.60;94851.00;;;;7407605;19;20132;-81
2022/10/03 02:08:44;;;;;;;27.43;9.67;;;7.90;99.90;8.70;94845.00;;;;7403018;19;20129;-80
2022/10/03 02:11:40;;;;;;;27.77;9.97;;;7.90;99.90;8.80;94750.00;;;;7403172;19;20143;-80
2022/10/03 02:14:44;;;;;;;16.83;9.33;;;7.90;99.90;8.80;94670.00;;;;7403890;19;20136;-80
2022/10/03 02:17:56;;;;;;;26.63;9.70;;;8.00;99.90;8.80;94853.00;;;;7403926;19;20129;-80
2022/10/03 02:21:36;;;;;;;26.47;9.50;;;8.00;99.90;8.20;94782.00;;;;7398617;19;20217;-80
2022/10/03 02:24:19;;;;;;;23.90;9.93;;;8.10;99.90;9.00;94850.00;;;;7402897;19;20129;-81
2022/10/03 02:27:21;;;;;;;29.33;11.43;;;8.10;99.90;8.90;94858.00;;;;7404749;19;20185;-80
2022/10/03 02:30:29;;;;;;;33.07;11.33;;;8.20;99.90;9.00;94887.00;;;;7405234;19;20228;-80
2022/10/03 02:33:48;;;;;;;22.90;9.40;;;8.20;99.90;9.00;94875.00;;;;7399558;19;20137;-79
2022/10/03 02:37:24;;;;;;;24.80;10.70;;;8.30;99.90;9.00;94863.00;;;;7402376;19;20132;-81
2022/10/03 02:40:47;;;;;;;24.50;9.67;;;8.30;99.90;9.10;94866.00;;;;7406691;19;20157;-80
2022/10/03 02:44:06;;;;;;;39.00;10.10;;;8.30;99.90;9.20;94869.00;;;;7401532;19;20165;-81
2022/10/03 02:47:16;;;;;;;29.80;10.30;;;8.40;99.90;9.30;94876.00;;;;7409491;19;20129;-81
2022/10/03 02:50:47;;;;;;;21.30;11.07;;;8.40;99.90;9.30;94683.00;;;;7401836;19;20125;-80
2022/10/03 02:53:45;;;;;;;24.98;11.57;;;8.50;99.90;9.20;94864.00;;;;7402794;19;20152;-80
2022/10/03 02:57:05;;;;;;;25.93;11.47;;;8.50;99.90;9.30;94770.00;;;;7403397;19;20511;-80
2022/10/03 02:59:51;;;;;;;25.25;10.93;;;8.50;99.90;9.20;94855.00;;;;7399049;19;20137;-80
2022/10/03 03:03:24;;;;;;;25.60;11.50;;;8.50;99.90;9.10;94851.00;;;;7398969;19;20607;-80
2022/10/03 03:06:19;;;;;;;26.73;13.43;;;8.40;99.90;9.00;94843.00;;;;7398663;19;20477;-80
2022/10/03 03:09:22;;;;;;;24.50;12.02;;;8.40;99.90;8.80;94842.00;;;;7399597;19;20157;-80
2022/10/03 03:12:49;;;;;;;31.30;12.10;;;8.20;99.90;8.70;94834.00;;;;7401192;19;20163;-80
2022/10/03 03:15:57;;;;;;;26.60;12.47;;;8.10;99.90;8.60;94838.00;;;;7409300;19;20165;-81
2022/10/03 03:19:41;;;;;;;26.37;11.37;;;8.00;99.90;8.50;94831.00;;;;7406187;19;20132;-80
2022/10/03 03:22:52;;;;;;;26.52;11.60;;;7.90;1.00;8.40;94840.00;;;;7402840;19;20133;-80
2022/10/03 03:25:58;;;;;;;23.20;11.70;;;7.80;1.00;8.30;94868.00;;;;7417008;19;20145;-82
2022/10/03 03:28:55;;;;;;;26.40;11.53;;;7.70;1.00;8.20;94838.00;;;;7416347;19;20616;-80
2022/10/03 03:32:20;;;;;;;25.05;11.48;;;7.60;1.00;8.20;94836.00;;;;7409478;19;20136;-80
2022/10/03 03:35:47;;;;;;;27.00;11.65;;;7.50;1.00;7.50;94854.00;;;;7407497;19;20137;-80
2022/10/03 03:38:57;;;;;;;26.03;11.83;;;7.50;1.00;8.10;94848.00;;;;7403365;19;20160;-80
2022/10/03 03:42:22;;;;;;;32.27;12.53;;;7.40;1.00;8.10;94833.00;;;;7403918;19;20147;-81
2022/10/03 03:45:31;;;;;;;27.13;12.13;;;7.30;1.00;8.00;94718.00;;;;7409805;19;20248;-80
2022/10/03 03:49:03;;;;;;;33.37;12.70;;;7.30;1.00;8.00;94839.00;;;;7410464;19;20159;-80
2022/10/03 03:52:22;;;;;;;56.43;15.13;;;7.30;1.00;8.10;94836.00;;;;7410370;19;20504;-80
2022/10/03 03:55:44;;;;;;;132.73;22.43;;;7.40;1.00;8.20;94702.00;;;;7405207;19;20149;-80
2022/10/03 03:58:58;;;;;;;164.93;22.97;;;7.40;1.00;7.80;94691.00;;;;7409327;19;20149;-81
2022/10/03 04:02:26;;;;;;;113.10;17.93;;;7.40;1.00;8.40;94728.00;;;;7407525;19;20169;-81
2022/10/03 04:05:17;;;;;;;99.57;19.57;;;7.50;1.00;8.20;94837.00;;;;7408013;19;20148;-81
2022/10/03 04:08:11;;;;;;;53.90;15.80;;;7.40;1.00;8.30;94841.00;;;;7410966;19;20612;-81
2022/10/03 04:11:17;;;;;;;46.47;15.63;;;7.40;1.00;8.20;94843.00;;;;7410386;19;20148;-81
2022/10/03 04:14:32;;;;;;;38.23;15.07;;;7.40;1.00;8.20;94849.00;;;;7406749;19;20196;-80
2022/10/03 04:20:33;;;;;;;35.90;15.27;;;7.30;1.00;8.00;94834.00;;;;7406712;19;20642;-81
2022/10/03 04:23:59;;;;;;;33.47;14.80;;;7.20;1.00;7.80;94848.00;;;;7409299;19;20161;-81
2022/10/03 04:27:11;;;;;;;33.37;13.67;;;7.20;1.00;7.80;94846.00;;;;7413175;19;20178;-82
2022/10/03 04:30:35;;;;;;;99.20;16.57;;;7.00;1.00;7.60;94852.00;;;;7413392;19;20125;-81
2022/10/03 04:33:31;;;;;;;60.17;15.67;;;6.90;1.00;7.50;94850.00;;;;7415339;19;20160;-81
2022/10/03 04:36:24;;;;;;;41.13;14.43;;;6.80;1.00;6.70;94773.00;;;;7410093;19;20133;-80
2022/10/03 04:39:19;;;;;;;30.07;12.90;;;6.80;1.00;7.60;94732.00;;;;7407938;19;20141;-80
2022/10/03 04:42:39;;;;;;;43.40;16.43;;;6.80;1.00;7.80;94872.00;;;;7405156;19;20124;-80
2022/10/03 04:45:49;;;;;;;125.67;20.83;;;6.90;1.00;7.90;94865.00;;;;7409923;19;20141;-80
2022/10/03 04:49:10;;;;;;;510.20;34.47;;;7.10;1.00;8.10;94872.00;;;;7409861;19;20135;-80
2022/10/03 04:52:23;;;;;;;448.63;33.13;;;7.20;1.00;7.40;94896.00;;;;7406927;19;20165;-81
2022/10/03 04:55:26;;;;;;;396.90;31.47;;;7.30;1.00;8.10;94873.00;;;;7414890;19;20498;-82
2022/10/03 04:58:15;;;;;;;338.50;28.30;;;7.40;1.00;8.00;94863.00;;;;7413509;19;20129;-82
2022/10/03 05:01:05;;;;;;;607.60;37.10;;;7.40;1.00;8.00;94861.00;;;;7412275;19;20149;-82
2022/10/03 05:04:25;;;;;;;520.77;31.90;;;7.40;1.00;8.10;94873.00;;;;7408031;19;20125;-82
2022/10/03 05:07:40;;;;;;;299.27;25.60;;;7.40;1.00;8.20;94873.00;;;;7414510;19;20149;-81
2022/10/03 05:22:42;;;;;;;344.90;30.57;;;7.50;99.90;8.40;94886.00;;;;7334200;19;20152;-82
2022/10/03 05:25:40;;;;;;;289.27;26.02;;;7.60;99.90;8.20;94788.00;;;;7408450;19;20141;-82
2022/10/03 05:28:37;;;;;;;418.07;30.17;;;7.60;99.90;7.70;94788.00;;;;7411710;19;20152;-81
2022/10/03 05:31:32;;;;;;;308.23;27.67;;;7.60;99.90;8.50;94907.00;;;;7406066;19;20176;-81
2022/10/03 05:34:34;;;;;;;206.10;25.97;;;7.60;99.90;8.50;94905.00;;;;7409763;19;20139;-81
2022/10/03 05:38:04;;;;;;;480.50;38.47;;;7.70;99.90;8.60;94922.00;;;;7407475;19;20149;-81
2022/10/03 05:40:42;;;;;;;218.50;23.77;;;7.80;99.90;8.50;94825.00;;;;7416767;19;20125;-81
2022/10/03 05:44:16;;;;;;;168.70;25.00;;;7.80;99.90;8.60;94916.00;;;;7417829;19;20137;-82
2022/10/03 05:47:49;;;;;;;132.43;24.27;;;7.80;99.90;8.00;94825.00;;;;7421555;19;20165;-82
2022/10/03 05:50:58;;;;;;;518.93;38.27;;;7.90;99.90;8.70;94801.00;;;;7421653;19;20153;-80
2022/10/03 05:54:30;;;;;;;80.53;21.27;;;7.90;99.90;8.70;94926.00;;;;7404721;19;20136;-81
2022/10/03 05:57:42;;;;;;;262.20;27.80;;;7.90;99.90;8.70;94915.00;;;;7404494;19;20136;-80
2022/10/03 06:00:26;;;;;;;60.47;18.52;;;8.00;1.00;8.60;94902.00;;;;7405705;19;20156;-81
2022/10/03 06:03:31;;;;;;;153.17;28.17;;;8.00;99.90;8.70;94851.00;;;;7404377;19;20148;-80
2022/10/03 06:06:25;;;;;;;108.80;40.58;;;8.00;99.90;8.70;94921.00;;;;7402061;19;20610;-81
2022/10/03 06:09:38;;;;;;;89.63;32.30;;;8.10;99.90;8.80;94927.00;;;;7405538;19;20165;-81
2022/10/03 06:12:34;;;;;;;63.77;21.93;;;8.10;99.90;8.80;94983.00;;;;7403728;19;20172;-80
2022/10/03 06:15:55;;;;;;;41.95;18.38;;;8.10;99.90;8.80;94930.00;;;;7406989;19;20129;-81
2022/10/03 06:19:09;;;;;;;61.07;18.40;;;8.00;99.90;8.80;94928.00;;;;7412009;19;20609;-82
2022/10/03 06:22:55;;;;;;;39.25;17.88;;;8.10;99.90;8.70;94933.00;;;;7404023;19;20121;-80
2022/10/03 06:26:28;;;;;;;43.40;16.92;;;8.10;1.40;8.90;94946.00;;;;7406181;19;20159;-80
2022/10/03 06:29:53;;;;;;;49.10;18.13;;;8.10;1.00;8.90;94829.00;;;;7404875;19;20137;-80
2022/10/03 06:32:47;;;;;;;50.63;16.97;;;8.20;1.00;8.90;94936.00;;;;7402948;19;20162;-80
2022/10/03 06:36:29;;;;;;;32.58;14.65;;;8.20;1.00;9.00;94948.00;;;;7402037;19;20152;-81
2022/10/03 06:39:43;;;;;;;35.77;15.10;;;8.20;1.00;9.00;94945.00;;;;7404620;19;20459;-83
2022/10/03 06:43:34;;;;;;;44.33;17.40;;;8.30;1.00;8.90;94797.00;;;;7401902;19;20178;-79
2022/10/03 06:46:58;;;;;;;42.65;16.45;;;8.30;1.00;8.80;94964.00;;;;7416310;19;20165;-81
2022/10/03 06:50:39;;;;;;;45.78;16.75;;;8.30;1.00;8.90;94961.00;;;;7409162;19;20163;-80
2022/10/03 06:53:33;;;;;;;85.60;22.10;;;8.30;1.00;9.00;94972.00;;;;7407523;19;20124;-80
2022/10/03 06:56:53;;;;;;;41.95;16.25;;;8.30;1.00;8.90;94986.00;;;;7401698;19;20872;-79
2022/10/03 07:00:55;;;;;;;35.42;15.43;;;8.30;1.00;8.90;94978.00;;;;7411606;19;20133;-80
2022/10/03 07:04:50;;;;;;;60.50;18.27;;;8.30;1.00;8.90;94965.00;;;;7420389;19;20129;-81
2022/10/03 07:08:10;;;;;;;53.58;20.10;;;8.20;1.00;8.90;94977.00;;;;7422745;19;20154;-81
2022/10/03 07:11:55;;;;;;;61.33;19.15;;;8.20;1.00;9.10;94976.00;;;;7417611;19;20145;-81
2022/10/03 07:14:37;;;;;;;31.67;14.57;;;8.20;1.00;9.10;94971.00;;;;7415483;19;20136;-81
2022/10/03 07:17:50;;;;;;;38.95;16.77;;;8.30;1.00;9.10;94982.00;;;;7417833;19;20174;-81
2022/10/03 07:21:24;;;;;;;36.58;16.50;;;8.40;1.00;9.10;94973.00;;;;7420969;19;20124;-81
2022/10/03 07:24:43;;;;;;;40.88;17.80;;;8.40;1.00;9.10;94961.00;;;;7411840;19;20168;-81
2022/10/03 07:28:15;;;;;;;39.13;17.02;;;8.50;1.00;9.10;94986.00;;;;7414063;19;20152;-81
2022/10/03 07:31:35;;;;;;;40.70;16.80;;;8.40;1.00;9.20;94914.00;;;;7416445;19;20156;-80
2022/10/03 07:38:56;;;;;;;29.83;14.80;;;8.50;1.00;9.30;94993.00;;;;7409295;19;20135;-80
2022/10/03 07:42:33;;;;;;;41.42;15.93;;;8.70;1.00;9.30;94854.00;;;;7415533;19;20148;-81
2022/10/03 07:45:39;;;;;;;38.47;15.27;;;8.70;1.00;9.50;94883.00;;;;7404293;19;20151;-80
2022/10/03 07:49:02;;;;;;;36.03;15.13;;;8.80;1.00;9.70;94995.00;;;;7399017;19;20157;-79
2022/10/03 07:52:22;;;;;;;30.80;15.40;;;8.90;1.00;9.70;95001.00;;;;7401969;19;20153;-80
2022/10/03 07:55:27;;;;;;;32.70;15.07;;;9.00;1.00;9.90;94886.00;;;;7399363;19;20172;-80
2022/10/03 07:58:27;;;;;;;26.08;15.00;;;9.00;1.00;9.90;94998.00;;;;7401034;19;20197;-79
2022/10/03 08:01:46;;;;;;;36.22;15.63;;;9.10;1.00;10.00;94996.00;;;;7403618;19;20160;-79
2022/10/03 08:05:12;;;;;;;37.85;16.85;;;9.10;1.00;10.30;94999.00;;;;7403011;19;20611;-79
2022/10/03 08:08:49;;;;;;;31.92;16.40;;;9.40;1.00;10.50;94826.00;;;;7403591;19;20208;-80
2022/10/03 08:12:19;;;;;;;34.13;17.13;;;9.70;1.00;10.80;94995.00;;;;7403202;19;20149;-79
2022/10/03 08:15:20;;;;;;;30.55;14.88;;;10.00;1.00;11.30;95000.00;;;;7395610;19;20132;-78
2022/10/03 08:18:22;;;;;;;26.58;17.10;;;10.40;1.00;10.90;94995.00;;;;7399961;19;20177;-78
2022/10/03 08:21:13;;;;;;;16.50;11.63;;;10.50;1.00;10.80;94947.00;;;;7401549;19;20159;-79
2022/10/03 08:24:20;;;;;;;20.00;10.27;;;10.40;1.00;10.30;94993.00;;;;7398495;19;20137;-78
2022/10/03 08:27:43;;;;;;;15.05;9.93;;;10.00;1.00;10.50;94925.00;;;;7398230;19;20165;-79
2022/10/03 08:30:40;;;;;;;16.33;10.10;;;9.90;1.00;10.40;95002.00;;;;7398493;19;20153;-79
2022/10/03 08:33:40;;;;;;;16.35;10.27;;;9.90;1.00;10.20;95001.00;;;;7400239;19;20153;-78
2022/10/03 08:37:06;;;;;;;15.35;9.65;;;9.80;1.00;10.00;94837.00;;;;7399834;19;20153;-79
2022/10/03 08:40:18;;;;;;;16.08;9.30;;;9.70;1.00;9.80;95004.00;;;;7397766;19;20160;-79
2022/10/03 08:43:24;;;;;;;17.63;9.90;;;9.50;1.00;9.90;95001.00;;;;7394894;19;20152;-77
2022/10/03 08:46:36;;;;;;;18.08;10.98;;;9.40;1.00;10.00;94999.00;;;;7397216;19;20622;-77
2022/10/03 08:49:50;;;;;;;27.10;15.52;;;9.50;1.00;10.30;94999.00;;;;7396836;19;20144;-77
2022/10/03 08:53:01;;;;;;;23.30;12.57;;;9.70;1.00;10.80;94964.00;;;;7397986;19;20136;-77
2022/10/03 08:56:06;;;;;;;23.05;12.05;;;9.80;1.00;10.70;94995.00;;;;7398012;19;20204;-77
2022/10/03 08:58:53;;;;;;;27.02;12.10;;;9.90;1.00;11.00;95014.00;;;;7396535;19;21128;-77
2022/10/03 09:02:16;;;;;;;21.58;12.35;;;10.10;1.00;11.10;95012.00;;;;7396331;19;20133;-79
2022/10/03 09:05:34;;;;;;;18.08;12.25;;;10.40;1.00;11.40;95020.00;;;;7394387;19;20132;-79
2022/10/03 09:08:40;;;;;;;28.23;12.57;;;10.70;1.00;11.60;95012.00;;;;7397326;19;20124;-77
2022/10/03 09:11:25;;;;;;;21.40;11.93;;;11.00;1.00;11.80;95013.00;;;;7395250;19;20188;-79
2022/10/03 09:14:39;;;;;;;18.33;10.70;;;11.20;23.90;11.80;95013.00;;;;7392549;19;20650;-78
2022/10/03 09:17:52;;;;;;;19.55;11.43;;;11.30;92.80;12.10;95008.00;;;;7394630;19;20203;-78
2022/10/03 09:21:05;;;;;;;19.40;11.10;;;11.30;99.90;12.00;95010.00;;;;7395455;19;20635;-77
2022/10/03 09:24:06;;;;;;;22.20;10.38;;;11.50;99.90;12.60;95012.00;;;;7390709;19;20162;-77
2022/10/03 09:27:18;;;;;;;18.40;11.05;;;11.60;99.90;12.60;95003.00;;;;7397400;19;20477;-77
2022/10/03 09:30:35;;;;;;;19.80;12.15;;;11.70;1.00;13.30;94903.00;;;;7396595;19;20224;-77
2022/10/03 09:34:17;;;;;;;23.52;10.38;;;12.10;1.00;13.50;94996.00;;;;7399382;19;20156;-78
2022/10/03 09:37:02;;;;;;;18.75;9.90;;;12.60;61.50;13.90;94999.00;;;;7396902;19;20225;-78
2022/10/03 09:40:23;;;;;;;9.68;8.52;;;12.90;63.30;13.30;94991.00;;;;7398337;19;20149;-77
2022/10/03 09:43:37;;;;;;;15.70;8.32;;;13.00;99.90;12.70;94855.00;;;;7395504;19;20173;-77
2022/10/03 09:46:38;;;;;;;15.73;7.78;;;12.90;99.90;12.50;94999.00;;;;7395342;19;20196;-77
2022/10/03 09:49:39;;;;;;;14.18;8.82;;;12.60;1.00;12.50;95000.00;;;;7396814;19;20608;-76
2022/10/03 09:53:01;;;;;;;15.77;8.25;;;12.40;1.00;12.60;94995.00;;;;7396641;19;20148;-77
2022/10/03 09:55:39;;;;;;;12.88;7.18;;;12.30;1.00;12.50;94997.00;;;;7397565;19;20129;-77
2022/10/03 09:58:45;;;;;;;12.85;7.32;;;12.30;99.90;11.70;94999.00;;;;7394930;19;20626;-77
2022/10/03 10:01:38;;;;;;;12.05;7.65;;;12.00;99.90;12.30;94999.00;;;;7393413;19;20177;-77
2022/10/03 10:04:30;;;;;;;9.57;7.18;;;12.00;99.90;11.90;94976.00;;;;7395496;19;20133;-78
2022/10/03 10:08:18;;;;;;;10.13;7.13;;;11.90;99.90;12.60;94990.00;;;;7397572;19;20547;-78
2022/10/03 10:11:29;;;;;;;13.32;6.80;;;12.20;99.90;12.60;94996.00;;;;7398078;19;20156;-79
2022/10/03 10:14:38;;;;;;;14.50;6.70;;;12.40;1.00;12.20;95010.00;;;;7392196;19;20240;-78
2022/10/03 10:17:47;;;;;;;10.23;7.00;;;12.50;1.00;11.90;95006.00;;;;7395973;19;20608;-78
2022/10/03 10:20:42;;;;;;;15.57;6.53;;;12.40;1.00;11.90;95008.00;;;;7394719;19;20145;-78
2022/10/03 10:23:43;;;;;;;12.25;6.93;;;12.20;99.90;11.90;95001.00;;;;7395274;19;20163;-78
2022/10/03 10:27:07;;;;;;;11.68;7.38;;;12.10;99.90;12.20;95003.00;;;;7398022;19;20153;-78
2022/10/03 10:30:05;;;;;;;13.13;7.20;;;12.10;99.90;12.30;94936.00;;;;7395502;19;20208;-78
2022/10/03 10:33:09;;;;;;;16.92;8.38;;;12.20;99.90;12.50;95011.00;;;;7393462;19;20151;-79
2022/10/03 10:36:16;;;;;;;17.38;7.68;;;12.40;99.90;12.20;95013.00;;;;7404213;19;20133;-79
2022/10/03 10:39:30;;;;;;;13.13;7.15;;;12.30;1.00;11.70;95012.00;;;;7405324;19;20173;-79
2022/10/03 10:42:43;;;;;;;15.55;7.00;;;12.00;1.00;11.70;95012.00;;;;7403126;19;20148;-78
2022/10/03 10:45:55;;;;;;;8.70;6.70;;;11.80;99.90;11.90;95013.00;;;;7401777;19;20487;-78
2022/10/03 10:49:16;;;;;;;11.52;7.60;;;11.70;99.90;11.70;95006.00;;;;7400023;19;20145;-78
2022/10/03 10:52:05;;;;;;;13.75;8.10;;;11.80;99.90;11.70;95007.00;;;;7400930;19;20148;-77
2022/10/03 10:55:29;;;;;;;16.38;8.55;;;11.80;99.90;11.80;95000.00;;;;7401196;19;20509;-78
2022/10/03 10:58:37;;;;;;;11.77;7.40;;;11.80;1.00;12.50;94990.00;;;;7402371;19;20155;-77
2022/10/03 11:02:04;;;;;;;11.85;8.05;;;11.90;1.00;14.20;94965.00;;;;7398328;19;20137;-78
2022/10/03 11:05:21;;;;;;;15.43;8.15;;;12.80;99.90;14.90;94962.00;;;;7400135;19;20170;-77
2022/10/03 11:08:16;;;;;;;10.88;7.70;;;13.60;1.00;14.60;94988.00;;;;7400969;19;20141;-77
2022/10/03 11:11:50;;;;;;;12.05;7.50;;;14.10;99.90;13.80;94993.00;;;;7399024;19;20156;-77
2022/10/03 11:15:00;;;;;;;11.52;6.15;;;14.00;68.30;13.00;95005.00;;;;7395480;19;20172;-77
2022/10/03 11:17:40;;;;;;;14.20;7.85;;;13.40;79.80;12.60;95010.00;;;;7394996;19;20137;-77
2022/10/03 11:20:51;;;;;;;12.95;7.13;;;13.00;99.90;12.50;95003.00;;;;7398721;19;20565;-77
2022/10/03 11:24:28;;;;;;;14.38;7.90;;;12.70;99.90;12.30;95011.00;;;;7396062;19;20616;-77
2022/10/03 11:27:20;;;;;;;10.60;7.25;;;12.40;1.00;12.00;94999.00;;;;7399054;19;20129;-78
2022/10/03 11:30:06;;;;;;;13.68;6.38;;;12.00;99.90;11.80;95005.00;;;;7397335;19;20165;-77
2022/10/03 11:33:00;;;;;;;12.68;6.90;;;11.90;1.00;12.10;95002.00;;;;7396551;19;20200;-77
2022/10/03 11:35:48;;;;;;;12.27;6.82;;;11.80;1.00;12.30;94995.00;;;;7395967;19;20556;-78
2022/10/03 11:38:35;;;;;;;16.80;7.35;;;11.90;1.00;12.30;95002.00;;;;7391453;19;20142;-77
2022/10/03 11:41:40;;;;;;;16.88;7.10;;;11.90;50.60;12.60;94997.00;;;;7399957;19;20125;-77
2022/10/03 11:44:32;;;;;;;13.40;7.32;;;12.00;1.00;12.80;94995.00;;;;7395157;19;20490;-77
2022/10/03 11:47:42;;;;;;;10.50;6.82;;;12.10;1.00;12.90;94998.00;;;;7397692;19;20148;-76
2022/10/03 11:50:31;;;;;;;13.25;6.88;;;12.20;99.90;12.70;94988.00;;;;7395344;19;20141;-77
2022/10/03 11:53:39;;;;;;;14.18;6.13;;;12.30;99.90;12.70;94982.00;;;;7395581;19;20170;-76
2022/10/03 11:56:46;;;;;;;10.82;6.20;;;12.30;99.90;12.70;94996.00;;;;7399178;19;20153;-77
2022/10/03 11:59:32;;;;;;;15.05;7.25;;;12.30;99.90;12.80;94993.00;;;;7399583;19;20157;-76
2022/10/03 12:02:28;;;;;;;13.15;8.13;;;12.30;99.90;12.60;94992.00;;;;7395486;19;20144;-76
2022/10/03 12:05:20;;;;;;;16.10;7.47;;;12.30;99.90;12.70;94990.00;;;;7396076;19;20467;-76
2022/10/03 12:11:39;;;;;;;12.40;7.63;;;12.20;1.00;13.10;94982.00;;;;7397563;19;20184;-76
2022/10/03 12:14:48;;;;;;;26.50;17.90;;;12.30;1.00;13.10;94970.00;;;;7395264;19;20160;-75
2022/10/03 12:17:39;;;;;;;23.88;13.07;;;12.40;1.00;13.00;94966.00;;;;7395742;19;20727;-76
2022/10/03 12:20:21;;;;;;;19.90;11.45;;;12.50;99.90;13.20;94983.00;;;;7395122;19;20128;-75
2022/10/03 12:23:16;;;;;;;16.98;10.88;;;12.50;99.90;13.10;94983.00;;;;7394953;19;20171;-76
2022/10/03 12:25:53;;;;;;;13.20;9.90;;;12.40;99.90;13.10;94968.00;;;;7396010;19;20129;-76
2022/10/03 12:28:29;;;;;;;12.88;8.00;;;12.40;99.90;13.00;94969.00;;;;7389595;19;20641;-76
2022/10/03 12:31:38;;;;;;;13.02;6.90;;;12.30;99.90;13.20;94974.00;;;;7388612;19;20141;-77
2022/10/03 12:35:13;;;;;;;14.23;7.53;;;12.30;1.00;13.10;94969.00;;;;7388735;19;20224;-76
2022/10/03 12:38:45;;;;;;;12.00;6.47;;;12.30;1.00;13.50;94891.00;;;;7386781;19;20156;-76
2022/10/03 12:41:54;;;;;;;8.82;6.35;;;12.50;1.00;13.50;94962.00;;;;7387616;19;20148;-77
2022/10/03 12:44:47;;;;;;;11.30;6.85;;;12.60;99.90;14.00;94938.00;;;;7385486;19;20157;-79
2022/10/03 12:47:39;;;;;;;10.77;6.68;;;12.70;99.90;15.30;94933.00;;;;7386339;19;20152;-76
2022/10/03 12:51:00;;;;;;;10.98;5.60;;;13.20;99.90;16.40;94924.00;;;;7387460;19;20139;-76
2022/10/03 12:53:51;;;;;;;13.48;5.30;;;14.00;1.00;16.50;94911.00;;;;7389725;19;20157;-76
2022/10/03 12:56:50;;;;;;;11.27;5.65;;;14.70;99.90;17.20;94921.00;;;;7385971;19;20509;-76
2022/10/03 12:59:52;;;;;;;9.95;5.15;;;15.30;99.90;16.80;94896.00;;;;7388827;19;20144;-76
2022/10/03 13:02:53;;;;;;;12.65;5.95;;;15.70;99.90;16.70;94888.00;;;;7386323;19;20157;-76
2022/10/03 13:06:11;;;;;;;8.25;5.55;;;15.90;99.90;17.20;94916.00;;;;7385448;19;20149;-77
2022/10/03 13:09:10;;;;;;;15.85;5.15;;;16.30;75.30;17.80;94909.00;;;;7391450;19;20137;-76
2022/10/03 13:12:21;;;;;;;8.02;5.22;;;16.70;99.90;17.80;94908.00;;;;7391816;19;20533;-77
2022/10/03 13:15:46;;;;;;;7.32;4.25;;;16.90;1.00;17.10;94936.00;;;;7390583;19;20193;-76
2022/10/03 13:18:44;;;;;;;9.27;4.32;;;16.70;1.00;15.60;94928.00;;;;7394544;19;20771;-77
2022/10/03 13:21:37;;;;;;;8.05;4.43;;;16.40;1.00;15.20;94948.00;;;;7391909;19;20137;-76
2022/10/03 13:24:28;;;;;;;10.05;4.35;;;15.70;1.00;14.50;94950.00;;;;7389765;19;20200;-76
2022/10/03 13:27:31;;;;;;;6.50;4.50;;;15.10;1.00;13.80;94938.00;;;;7392515;19;20145;-76
2022/10/03 13:30:14;;;;;;;7.78;3.80;;;14.60;1.00;14.00;94916.00;;;;7394086;19;20224;-77
2022/10/03 13:33:18;;;;;;;6.57;4.30;;;14.20;99.90;14.00;94940.00;;;;7393875;19;20147;-77
2022/10/03 13:36:01;;;;;;;9.05;4.90;;;13.90;99.90;13.90;94941.00;;;;7388075;19;20144;-77
2022/10/03 13:39:10;;;;;;;13.05;5.63;;;13.70;99.90;14.90;94926.00;;;;7390489;19;20168;-77
2022/10/03 13:42:23;;;;;;;14.93;5.32;;;13.70;1.00;15.80;94925.00;;;;7387074;19;20220;-76
2022/10/03 13:45:19;;;;;;;9.55;5.07;;;14.00;1.00;15.20;94932.00;;;;7390940;19;20604;-78
2022/10/03 13:48:06;;;;;;;8.32;5.40;;;14.30;99.90;15.20;94936.00;;;;7390775;19;20192;-77
2022/10/03 13:50:51;;;;;;;7.88;4.60;;;14.40;99.90;14.70;94934.00;;;;7392271;19;20200;-76
2022/10/03 13:53:38;;;;;;;11.75;5.10;;;14.20;99.90;14.40;94940.00;;;;7389546;19;20660;-77
2022/10/03 13:57:01;;;;;;;12.57;4.75;;;13.90;99.90;14.10;94933.00;;;;7394017;19;20152;-76
2022/10/03 14:00:11;;;;;;;9.35;4.53;;;13.80;99.90;14.10;94923.00;;;;7391445;19;20149;-78
2022/10/03 14:03:16;;;;;;;6.03;4.25;;;13.70;99.90;14.40;94913.00;;;;7389431;19;20156;-76
2022/10/03 14:05:58;;;;;;;11.93;5.07;;;13.60;99.90;15.60;94915.00;;;;7391208;19;20140;-77
2022/10/03 14:09:24;;;;;;;7.88;4.47;;;14.00;99.90;16.10;94905.00;;;;7390741;19;20155;-77
2022/10/03 14:12:30;;;;;;;10.70;4.35;;;14.50;99.90;15.90;94908.00;;;;7389966;19;20486;-77
2022/10/03 14:15:49;;;;;;;7.63;4.10;;;14.90;99.90;16.40;94909.00;;;;7391944;19;20162;-77
2022/10/03 14:19:08;;;;;;;8.98;4.47;;;15.20;73.00;15.30;94905.00;;;;7392376;19;20129;-77
2022/10/03 14:22:30;;;;;;;6.57;4.00;;;15.20;1.00;14.70;94916.00;;;;7387595;19;20493;-77
2022/10/03 14:25:15;;;;;;;7.95;4.65;;;14.90;1.00;14.80;94918.00;;;;7389125;19;20824;-77